KALW/ALW METAR and TAF weather

Enter ICAO airport designator
Station Type Date Time Source
KALW METAR 2020/04/02 20:53 UTC NOAA

KALW 022053Z 18005KT 10SM FEW038 BKN050 OVC065 07/M01 A3014 RMK AO2 SLP214 T00721011 58008


Station Type Date Time Source
KALW Decoded METAR 2020/04/02 20:53 UTC NOAA

WALLA WALLA REGIONAL AIRPORT, WA, United States (KALW) 46-06N 118-17W 363M
Apr 02, 2020 - 04:53 PM EDT / 2020.04.02 2053 UTC
Wind: from the S (180 degrees) at 6 MPH (5 KT):0
Visibility: 10 mile(s):0
Sky conditions: overcast
Temperature: 45.0 F (7.2 C)
Dew Point: 30.0 F (-1.1 C)
Relative Humidity: 55%
Pressure (altimeter): 30.14 in. Hg (1020 hPa)
Pressure tendency: 0.02 inches (0.8 hPa) lower than three hours ago
ob: KALW 022053Z 18005KT 10SM FEW038 BKN050 OVC065 07/M01 A3014 RMK AO2 SLP214 T00721011 58008
cycle: 21

Station Type Date Time Source
KALW TAF 2020/04/02 18:33 UTC NOAA

TAF KALW 021730Z 0218/0318 16007KT P6SM FEW050
FM022200 23007KT P6SM SCT050 BKN070
FM030200 16009KT P6SM FEW060 SCT080
FM030600 17006KT P6SM BKN050
FM031700 21008KT P6SM FEW040

Example: see airport list